Shinkyouwa Maru — JG5692 — position and weather

sailwx.info

Track history (hours):
 
Tides and Currents Weather Stations Pressure Air Temp Water Temp Dewpoint Dewpoint Depression Visibility Wind Speed Wind Dir Waves Ship Positions

Shinkyouwa Maru

Last reported at 2017-Nov-19 10:26 UTC. Time now 2017-Nov-21 11:33 UTC.
Position N 34°58' E 139°30'.

Length 104 m; draft 6.4 m.

Type: Ship (hazmat cat A). MMSI: 431101018.

Date/timePositionNaut miles runAvg speedWind from/ knotsBaromVisibWave heightAir tempDewpointWater temp
2017-Nov-19 10:26N 34°58' E 139°30'612.6
2017-Nov-19 10:00N 35°02' E 139°35'612.4
2017-Nov-19 09:30N 35°06' E 139°41'613.0
2017-Nov-19 09:00N 35°11' E 139°45'611.8
2017-Nov-19 08:30N 35°17' E 139°45'612.8
2017-Nov-19 08:01N 35°23' E 139°43'713.6
2017-Nov-19 07:31N 35°28' E 139°49'713.8
2017-Nov-19 07:01N 35°31' E 139°56'6 0.9
2017-Nov-19 00:11N 35°32' E 140°03'1 3.1
2017-Nov-19 00:00N 35°32' E 140°03'1 1.6
2017-Nov-18 23:25N 35°32' E 140°02'410.7
2017-Nov-18 23:00N 35°31' E 139°56'713.2
2017-Nov-18 22:30N 35°27' E 139°50'713.3
2017-Nov-18 22:00N 35°22' E 139°45'611.7
2017-Nov-18 21:30N 35°16' E 139°47'612.7
2017-Nov-18 21:00N 35°10' E 139°47'613.0
2017-Nov-18 20:30N 35°03' E 139°45'612.7
2017-Nov-18 20:00N 34°60' E 139°38'236 5.1
2017-Nov-16 21:44N 34°06' E 134°60'313.5
2017-Nov-16 21:30N 34°09' E 134°58'713.5
2017-Nov-16 21:00N 34°16' E 134°59'612.2
2017-Nov-16 20:30N 34°22' E 135°01'713.1
2017-Nov-16 20:00N 34°26' E 135°07'713.7
2017-Nov-16 19:30N 34°30' E 135°14'713.4
2017-Nov-16 19:00N 34°35' E 135°20'4 9.0
2017-Nov-16 18:30N 34°35' E 135°25'1 0.1
2017-Nov-16 05:55N 34°34' E 135°26'2 4.0
2017-Nov-16 05:29N 34°36' E 135°25'4 7.8
2017-Nov-16 04:59N 34°36' E 135°20'1 0.9
2017-Nov-16 04:15N 34°36' E 135°19'0 0.0
2017-Nov-16 03:57N 34°36' E 135°19'0 0.0
2017-Nov-16 03:27N 34°36' E 135°19'0 0.0
2017-Nov-16 02:57N 34°36' E 135°19'0 0.0
2017-Nov-16 02:03N 34°36' E 135°19'0 0.2
2017-Nov-16 01:57N 34°36' E 135°19'0 0.0
2017-Nov-16 01:03N 34°36' E 135°19'0 0.7
2017-Nov-16 00:58N 34°35' E 135°19'511.3
2017-Nov-16 00:30N 34°35' E 135°13'5 9.8
2017-Nov-15 23:59N 34°40' E 135°11'0 0.2
2017-Nov-15 23:22N 34°40' E 135°11'0 0.0
2017-Nov-15 22:51N 34°40' E 135°11'0 0.0
2017-Nov-15 22:28N 34°40' E 135°11'0 0.0
2017-Nov-15 21:52N 34°40' E 135°11'0 0.0
2017-Nov-15 21:28N 34°40' E 135°11'0 0.0
2017-Nov-15 20:58N 34°40' E 135°11'0 0.0
2017-Nov-15 20:27N 34°40' E 135°11'0 0.0
2017-Nov-15 19:58N 34°40' E 135°11'0 0.0
2017-Nov-15 19:22N 34°40' E 135°11'0 0.0
2017-Nov-15 18:57N 34°40' E 135°11'0 0.0
2017-Nov-15 18:22N 34°40' E 135°11'0 0.0
2017-Nov-15 17:58N 34°40' E 135°11'0 0.0
2017-Nov-15 17:28N 34°40' E 135°11'0 0.0
2017-Nov-15 16:57N 34°40' E 135°11'0 0.0
2017-Nov-15 16:28N 34°40' E 135°11'0 0.0
2017-Nov-15 15:58N 34°40' E 135°11'0 0.0
2017-Nov-15 15:28N 34°40' E 135°11'0 0.0
2017-Nov-15 14:58N 34°40' E 135°11'0 0.0
2017-Nov-15 14:27N 34°40' E 135°11'0 0.0
2017-Nov-15 13:58N 34°40' E 135°11'0 0.0
2017-Nov-15 13:27N 34°40' E 135°11'0 0.0
2017-Nov-15 12:57N 34°40' E 135°11'0 0.0
2017-Nov-15 12:22N 34°40' E 135°11'0 0.0
2017-Nov-15 11:58N 34°40' E 135°11'0 0.0
2017-Nov-15 11:28N 34°40' E 135°11'0 0.0
2017-Nov-15 10:52N 34°40' E 135°11'0 0.0
2017-Nov-15 10:16N 34°40' E 135°11'0 0.0
2017-Nov-15 09:57N 34°40' E 135°11'0 0.0
2017-Nov-15 09:16N 34°40' E 135°11'0 0.0
2017-Nov-15 08:57N 34°40' E 135°11'0 0.0
2017-Nov-15 08:27N 34°40' E 135°11'0 0.0
2017-Nov-15 07:52N 34°40' E 135°11'0 0.0
2017-Nov-15 07:27N 34°40' E 135°11'0 0.0
2017-Nov-15 06:58N 34°40' E 135°11'0 0.0
2017-Nov-15 06:15N 34°40' E 135°11'0 0.0
2017-Nov-15 05:46N 34°40' E 135°11'0 0.0
2017-Nov-15 05:28N 34°40' E 135°11'0 0.0
2017-Nov-15 04:51N 34°40' E 135°11'0 0.0
2017-Nov-15 04:21N 34°40' E 135°11'0 0.0
2017-Nov-15 03:57N 34°40' E 135°11'0 0.0
2017-Nov-15 03:28N 34°40' E 135°11'0 0.0
2017-Nov-15 02:57N 34°40' E 135°11'0 0.0
2017-Nov-15 02:22N 34°40' E 135°11'0 0.0
2017-Nov-15 01:57N 34°40' E 135°11'0 0.0
2017-Nov-15 01:27N 34°40' E 135°11'0 0.0
2017-Nov-15 00:57N 34°40' E 135°11'0 0.0
2017-Nov-15 00:27N 34°40' E 135°11'0 0.0
2017-Nov-14 23:58N 34°40' E 135°11'2 3.6
2017-Nov-14 23:30N 34°38' E 135°11'510.3
2017-Nov-14 23:00N 34°34' E 135°08'713.1
2017-Nov-14 22:30N 34°28' E 135°05'714.0
2017-Nov-14 21:59N 34°21' E 135°02'714.4
2017-Nov-14 21:31N 34°14' E 134°59'714.5
2017-Nov-14 21:01N 34°07' E 134°60'  
2017-Nov-12 16:18N 34°58' E 139°31'413.4
2017-Nov-12 16:00N 35°01' E 139°34'713.7
2017-Nov-12 15:30N 35°06' E 139°40'713.6
2017-Nov-12 15:00N 35°11' E 139°45'612.3
2017-Nov-12 14:30N 35°17' E 139°45'612.9
2017-Nov-12 14:00N 35°23' E 139°43'713.4
2017-Nov-12 13:30N 35°28' E 139°49'1013.3
2017-Nov-12 12:44N 35°32' E 140°00'2 9.9
2017-Nov-12 12:30N 35°32' E 140°03'0 0.0
2017-Nov-12 03:48N 35°32' E 140°03'5 2.8
2017-Nov-12 01:57N 35°31' E 139°57'714.1
2017-Nov-12 01:26N 35°27' E 139°50'613.5
2017-Nov-12 01:00N 35°22' E 139°45'611.7
2017-Nov-12 00:30N 35°16' E 139°46'612.8
2017-Nov-12 00:00N 35°10' E 139°47'612.9
2017-Nov-11 23:30N 35°04' E 139°44'713.5
2017-Nov-11 23:00N 34°60' E 139°37'6 0.2
2017-Nov-10 10:45N 34°58' E 139°30'313.0
2017-Nov-10 10:30N 35°00' E 139°33'713.5
2017-Nov-10 10:00N 35°05' E 139°39'713.7
2017-Nov-10 09:30N 35°10' E 139°44'612.4
2017-Nov-10 09:00N 35°16' E 139°46'612.0
2017-Nov-10 08:30N 35°21' E 139°42'611.8
2017-Nov-10 08:00N 35°26' E 139°46'15 1.6
2017-Nov-09 22:29N 35°32' E 140°03'  
Track history (hours):
 
Tides and Currents Weather Stations Pressure Air Temp Water Temp Dewpoint Dewpoint Depression Visibility Wind Speed Wind Dir Waves Ship Positions

Shinkyouwa Maru

Last reported at 2017-Nov-19 10:26 UTC. Time now 2017-Nov-21 11:33 UTC.
Position N 34°58' E 139°30'.

Length 104 m; draft 6.4 m.

Type: Ship (hazmat cat A). MMSI: 431101018.

Date/timePositionNaut miles runAvg speedWind from/ knotsBaromVisibWave heightAir tempDewpointWater temp
2017-Nov-19 10:26N 34°58' E 139°30'612.6
2017-Nov-19 10:00N 35°02' E 139°35'612.4
2017-Nov-19 09:30N 35°06' E 139°41'613.0
2017-Nov-19 09:00N 35°11' E 139°45'611.8
2017-Nov-19 08:30N 35°17' E 139°45'612.8
2017-Nov-19 08:01N 35°23' E 139°43'713.6
2017-Nov-19 07:31N 35°28' E 139°49'713.8
2017-Nov-19 07:01N 35°31' E 139°56'6 0.9
2017-Nov-19 00:11N 35°32' E 140°03'1 3.1
2017-Nov-19 00:00N 35°32' E 140°03'1 1.6
2017-Nov-18 23:25N 35°32' E 140°02'410.7
2017-Nov-18 23:00N 35°31' E 139°56'713.2
2017-Nov-18 22:30N 35°27' E 139°50'713.3
2017-Nov-18 22:00N 35°22' E 139°45'611.7
2017-Nov-18 21:30N 35°16' E 139°47'612.7
2017-Nov-18 21:00N 35°10' E 139°47'613.0
2017-Nov-18 20:30N 35°03' E 139°45'612.7
2017-Nov-18 20:00N 34°60' E 139°38'236 5.1
2017-Nov-16 21:44N 34°06' E 134°60'313.5
2017-Nov-16 21:30N 34°09' E 134°58'713.5
2017-Nov-16 21:00N 34°16' E 134°59'612.2
2017-Nov-16 20:30N 34°22' E 135°01'713.1
2017-Nov-16 20:00N 34°26' E 135°07'713.7
2017-Nov-16 19:30N 34°30' E 135°14'713.4
2017-Nov-16 19:00N 34°35' E 135°20'4 9.0
2017-Nov-16 18:30N 34°35' E 135°25'1 0.1
2017-Nov-16 05:55N 34°34' E 135°26'2 4.0
2017-Nov-16 05:29N 34°36' E 135°25'4 7.8
2017-Nov-16 04:59N 34°36' E 135°20'1 0.9
2017-Nov-16 04:15N 34°36' E 135°19'0 0.0
2017-Nov-16 03:57N 34°36' E 135°19'0 0.0
2017-Nov-16 03:27N 34°36' E 135°19'0 0.0
2017-Nov-16 02:57N 34°36' E 135°19'0 0.0
2017-Nov-16 02:03N 34°36' E 135°19'0 0.2
2017-Nov-16 01:57N 34°36' E 135°19'0 0.0
2017-Nov-16 01:03N 34°36' E 135°19'0 0.7
2017-Nov-16 00:58N 34°35' E 135°19'511.3
2017-Nov-16 00:30N 34°35' E 135°13'5 9.8
2017-Nov-15 23:59N 34°40' E 135°11'0 0.2
2017-Nov-15 23:22N 34°40' E 135°11'0 0.0
2017-Nov-15 22:51N 34°40' E 135°11'0 0.0
2017-Nov-15 22:28N 34°40' E 135°11'0 0.0
2017-Nov-15 21:52N 34°40' E 135°11'0 0.0
2017-Nov-15 21:28N 34°40' E 135°11'0 0.0
2017-Nov-15 20:58N 34°40' E 135°11'0 0.0
2017-Nov-15 20:27N 34°40' E 135°11'0 0.0
2017-Nov-15 19:58N 34°40' E 135°11'0 0.0
2017-Nov-15 19:22N 34°40' E 135°11'0 0.0
2017-Nov-15 18:57N 34°40' E 135°11'0 0.0
2017-Nov-15 18:22N 34°40' E 135°11'0 0.0
2017-Nov-15 17:58N 34°40' E 135°11'0 0.0
2017-Nov-15 17:28N 34°40' E 135°11'0 0.0
2017-Nov-15 16:57N 34°40' E 135°11'0 0.0
2017-Nov-15 16:28N 34°40' E 135°11'0 0.0
2017-Nov-15 15:58N 34°40' E 135°11'0 0.0
2017-Nov-15 15:28N 34°40' E 135°11'0 0.0
2017-Nov-15 14:58N 34°40' E 135°11'0 0.0
2017-Nov-15 14:27N 34°40' E 135°11'0 0.0
2017-Nov-15 13:58N 34°40' E 135°11'0 0.0
2017-Nov-15 13:27N 34°40' E 135°11'0 0.0
2017-Nov-15 12:57N 34°40' E 135°11'0 0.0
2017-Nov-15 12:22N 34°40' E 135°11'0 0.0
2017-Nov-15 11:58N 34°40' E 135°11'0 0.0
2017-Nov-15 11:28N 34°40' E 135°11'0 0.0
2017-Nov-15 10:52N 34°40' E 135°11'0 0.0
2017-Nov-15 10:16N 34°40' E 135°11'0 0.0
2017-Nov-15 09:57N 34°40' E 135°11'0 0.0
2017-Nov-15 09:16N 34°40' E 135°11'0 0.0
2017-Nov-15 08:57N 34°40' E 135°11'0 0.0
2017-Nov-15 08:27N 34°40' E 135°11'0 0.0
2017-Nov-15 07:52N 34°40' E 135°11'0 0.0
2017-Nov-15 07:27N 34°40' E 135°11'0 0.0
2017-Nov-15 06:58N 34°40' E 135°11'0 0.0
2017-Nov-15 06:15N 34°40' E 135°11'0 0.0
2017-Nov-15 05:46N 34°40' E 135°11'0 0.0
2017-Nov-15 05:28N 34°40' E 135°11'0 0.0
2017-Nov-15 04:51N 34°40' E 135°11'0 0.0
2017-Nov-15 04:21N 34°40' E 135°11'0 0.0
2017-Nov-15 03:57N 34°40' E 135°11'0 0.0
2017-Nov-15 03:28N 34°40' E 135°11'0 0.0
2017-Nov-15 02:57N 34°40' E 135°11'0 0.0
2017-Nov-15 02:22N 34°40' E 135°11'0 0.0
2017-Nov-15 01:57N 34°40' E 135°11'0 0.0
2017-Nov-15 01:27N 34°40' E 135°11'0 0.0
2017-Nov-15 00:57N 34°40' E 135°11'0 0.0
2017-Nov-15 00:27N 34°40' E 135°11'0 0.0
2017-Nov-14 23:58N 34°40' E 135°11'2 3.6
2017-Nov-14 23:30N 34°38' E 135°11'510.3
2017-Nov-14 23:00N 34°34' E 135°08'713.1
2017-Nov-14 22:30N 34°28' E 135°05'714.0
2017-Nov-14 21:59N 34°21' E 135°02'714.4
2017-Nov-14 21:31N 34°14' E 134°59'714.5
2017-Nov-14 21:01N 34°07' E 134°60'  
2017-Nov-12 16:18N 34°58' E 139°31'413.4
2017-Nov-12 16:00N 35°01' E 139°34'713.7
2017-Nov-12 15:30N 35°06' E 139°40'713.6
2017-Nov-12 15:00N 35°11' E 139°45'612.3
2017-Nov-12 14:30N 35°17' E 139°45'612.9
2017-Nov-12 14:00N 35°23' E 139°43'713.4
2017-Nov-12 13:30N 35°28' E 139°49'1013.3
2017-Nov-12 12:44N 35°32' E 140°00'2 9.9
2017-Nov-12 12:30N 35°32' E 140°03'0 0.0
2017-Nov-12 03:48N 35°32' E 140°03'5 2.8
2017-Nov-12 01:57N 35°31' E 139°57'714.1
2017-Nov-12 01:26N 35°27' E 139°50'613.5
2017-Nov-12 01:00N 35°22' E 139°45'611.7
2017-Nov-12 00:30N 35°16' E 139°46'612.8
2017-Nov-12 00:00N 35°10' E 139°47'612.9
2017-Nov-11 23:30N 35°04' E 139°44'713.5
2017-Nov-11 23:00N 34°60' E 139°37'6 0.2
2017-Nov-10 10:45N 34°58' E 139°30'313.0
2017-Nov-10 10:30N 35°00' E 139°33'713.5
2017-Nov-10 10:00N 35°05' E 139°39'713.7
2017-Nov-10 09:30N 35°10' E 139°44'612.4
2017-Nov-10 09:00N 35°16' E 139°46'612.0
2017-Nov-10 08:30N 35°21' E 139°42'611.8
2017-Nov-10 08:00N 35°26' E 139°46'15 1.6
2017-Nov-09 22:29N 35°32' E 140°03'  

Dump ship's entire track history